Time;durP1;ratioP1;P1;durP2;ratioP2;P2;SDS_P1;SDS_P2;PMS_P1;PMS_P2;Temp;Humidity;BMP_temperature;BMP_pressure;BME280_temperature;BME280_humidity;BME280_pressure;Samples;Min_cycle;Max_cycle;Signal;HPM_P1;HPM_P2
2022/04/11 00:02:01;;;;;;;;;9.50;6.25;;;;;9.29;47.42;101208.63;5067298;28;45209;-75
2022/04/11 00:04:27;;;;;;;;;5.25;5.00;;;;;9.47;46.99;101237.44;5066590;27;45324;-75
2022/04/11 00:06:53;;;;;;;;;10.75;7.25;;;;;9.42;46.78;101239.91;5064407;28;45268;-75
2022/04/11 00:09:19;;;;;;;;;10.75;7.50;;;;;9.41;47.66;101233.75;5073310;28;45300;-75
2022/04/11 00:11:44;;;;;;;;;5.00;3.75;;;;;9.40;47.49;101234.56;5068630;27;46096;-75
2022/04/11 00:14:10;;;;;;;;;7.50;7.50;;;;;9.12;47.80;101193.09;5080714;27;45326;-74
2022/04/11 00:16:35;;;;;;;;;6.00;4.75;;;;;9.36;47.22;101234.41;5068624;27;45521;-75
2022/04/11 00:19:01;;;;;;;;;7.75;6.25;;;;;9.21;47.27;101203.06;5068242;27;45493;-75
2022/04/11 00:21:26;;;;;;;;;9.00;8.00;;;;;9.23;48.16;101219.88;5064626;28;46053;-75
2022/04/11 00:23:52;;;;;;;;;6.50;5.00;;;;;9.26;47.67;101222.63;5066129;28;45330;-75
2022/04/11 00:26:17;;;;;;;;;8.00;8.00;;;;;9.16;48.20;101202.03;5066935;28;45418;-75
2022/04/11 00:28:42;;;;;;;;;7.75;5.25;;;;;9.25;48.08;101223.47;5067278;27;45370;-76
2022/04/11 00:31:08;;;;;;;;;5.00;5.00;;;;;9.11;48.44;101200.97;5062487;28;46311;-74
2022/04/11 00:33:33;;;;;;;;;7.50;6.50;;;;;9.13;48.37;101197.56;5065232;28;45175;-75
2022/04/11 00:35:58;;;;;;;;;5.50;5.50;;;;;9.17;48.04;101201.19;5067509;28;45292;-75
2022/04/11 00:38:24;;;;;;;;;8.50;5.75;;;;;8.90;48.36;101154.50;5065056;27;45307;-75
2022/04/11 00:40:49;;;;;;;;;4.00;4.00;;;;;9.02;48.92;101184.78;5065117;28;45370;-75
2022/04/11 00:43:38;;;;;;;;;5.25;5.25;;;;;9.05;48.24;101180.56;5065942;27;45241;-74
2022/04/11 00:46:05;;;;;;;;;5.00;5.00;;;;;9.02;48.67;101180.44;5067206;28;45593;-75
2022/04/11 00:48:31;;;;;;;;;5.00;5.00;;;;;8.72;48.36;101138.03;5064800;27;45342;-75
2022/04/11 00:51:02;;;;;;;;;4.75;3.75;;;;;8.81;47.73;101153.28;5073492;28;46221;-75
2022/04/11 00:53:30;;;;;;;;;3.75;3.75;;;;;8.84;49.02;101162.19;5064410;27;45170;-75
2022/04/11 00:55:57;;;;;;;;;4.00;4.00;;;;;8.89;48.14;101168.53;5069309;28;45434;-75
2022/04/11 00:58:24;;;;;;;;;3.25;3.00;;;;;8.55;48.68;101118.94;5076546;28;45631;-75
2022/04/11 01:00:49;;;;;;;;;3.00;3.00;;;;;8.79;48.49;101147.94;5064517;28;45493;-75
2022/04/11 01:03:15;;;;;;;;;4.75;3.00;;;;;8.66;47.58;101116.72;5071184;28;45438;-75
2022/04/11 01:05:41;;;;;;;;;5.00;3.50;;;;;8.77;48.98;101136.47;5063595;28;45235;-75
2022/04/11 01:08:09;;;;;;;;;4.75;3.00;;;;;8.81;47.88;101148.91;5073086;28;45852;-75
2022/04/11 01:10:34;;;;;;;;;2.75;2.75;;;;;8.74;48.54;101126.69;5062421;28;46621;-75
2022/04/11 01:13:00;;;;;;;;;2.00;2.00;;;;;8.67;48.11;101116.75;5072743;27;45389;-74
2022/04/11 01:15:26;;;;;;;;;4.50;2.75;;;;;8.54;47.37;101105.69;5070087;28;45430;-75
2022/04/11 01:17:51;;;;;;;;;4.00;3.00;;;;;8.69;48.10;101117.72;5070780;28;45347;-74
2022/04/11 01:20:17;;;;;;;;;2.75;2.00;;;;;8.79;48.28;101128.59;5061786;28;46025;-74
2022/04/11 01:22:43;;;;;;;;;2.00;2.00;;;;;8.58;48.23;101087.44;5068168;28;45349;-75
2022/04/11 01:25:13;;;;;;;;;3.25;3.25;;;;;8.79;48.11;101121.56;5061956;28;45240;-75
2022/04/11 01:27:40;;;;;;;;;3.00;3.00;;;;;8.79;47.93;101120.69;5066304;28;45461;-75
2022/04/11 01:30:08;;;;;;;;;3.25;3.25;;;;;8.71;48.13;101102.88;5061305;28;45496;-75
2022/04/11 01:32:35;;;;;;;;;3.50;2.00;;;;;8.56;47.44;101083.84;5064145;28;45324;-75
2022/04/11 01:35:00;;;;;;;;;2.75;2.50;;;;;8.57;47.74;101076.81;5061723;28;45395;-75
2022/04/11 01:37:27;;;;;;;;;4.50;3.00;;;;;8.68;48.11;101101.84;5067913;28;45252;-75
2022/04/11 01:39:53;;;;;;;;;3.00;3.00;;;;;8.51;49.04;101072.22;5060836;28;45271;-75
2022/04/11 01:42:18;;;;;;;;;2.75;2.75;;;;;8.57;47.81;101080.38;5068639;28;45327;-75
2022/04/11 01:44:43;;;;;;;;;2.50;2.50;;;;;8.43;47.47;101052.59;5059419;28;45508;-75
2022/04/11 01:47:09;;;;;;;;;3.00;2.00;;;;;8.50;48.26;101076.59;5069934;27;45310;-74
2022/04/11 01:49:34;;;;;;;;;3.00;3.00;;;;;8.38;48.23;101049.78;5068256;28;45908;-75
2022/04/11 01:51:59;;;;;;;;;3.25;2.50;;;;;8.56;48.22;101090.84;5071491;28;45329;-75
2022/04/11 01:54:25;;;;;;;;;5.00;3.00;;;;;8.57;48.76;101087.38;5069378;27;45300;-75
2022/04/11 01:56:50;;;;;;;;;7.50;4.50;;;;;8.52;48.97;101088.09;5074498;28;45298;-75
2022/04/11 01:59:16;;;;;;;;;7.75;3.50;;;;;8.22;48.64;101035.13;5078081;27;45355;-75
2022/04/11 02:01:43;;;;;;;;;3.75;3.50;;;;;8.21;49.45;101050.91;5066163;28;45470;-74
2022/04/11 02:04:09;;;;;;;;;4.00;4.00;;;;;8.44;49.00;101088.66;5069235;27;45449;-75
2022/04/11 02:06:34;;;;;;;;;4.00;4.00;;;;;8.30;49.46;101064.41;5066886;28;45395;-74
2022/04/11 02:08:59;;;;;;;;;5.00;3.75;;;;;8.40;49.28;101076.19;5069415;28;45240;-75
2022/04/11 02:11:25;;;;;;;;;4.75;4.75;;;;;8.14;49.18;101040.97;5065737;28;45225;-75
2022/04/11 02:13:50;;;;;;;;;6.00;3.00;;;;;8.13;48.72;101039.19;5068070;28;45252;-75
2022/04/11 02:16:15;;;;;;;;;4.00;2.50;;;;;8.30;49.51;101070.56;5063769;28;45548;-75
2022/04/11 02:18:40;;;;;;;;;4.25;3.50;;;;;8.21;48.96;101061.44;5067172;28;45366;-75
2022/04/11 02:21:06;;;;;;;;;3.00;3.00;;;;;8.28;48.79;101066.06;5063678;28;45240;-74
2022/04/11 02:23:31;;;;;;;;;3.25;3.25;;;;;8.16;48.57;101045.44;5065896;28;45255;-75
2022/04/11 02:25:57;;;;;;;;;4.75;4.00;;;;;8.19;48.60;101050.84;5062211;28;45433;-75
2022/04/11 02:28:22;;;;;;;;;4.00;4.00;;;;;8.14;49.03;101043.59;5064156;28;45330;-75
2022/04/11 02:30:47;;;;;;;;;4.00;4.00;;;;;8.05;49.14;101023.97;5069055;27;45580;-75
2022/04/11 02:33:13;;;;;;;;;4.75;3.50;;;;;7.96;49.17;101013.09;5063510;28;45307;-74
2022/04/11 02:35:39;;;;;;;;;3.00;3.00;;;;;7.93;49.57;101004.19;5063878;28;45941;-75
2022/04/11 02:38:04;;;;;;;;;4.00;4.00;;;;;8.06;48.69;101030.13;5069686;27;46396;-75
2022/04/11 02:40:30;;;;;;;;;3.25;3.25;;;;;8.15;48.60;101043.66;5064111;28;45423;-75
2022/04/11 02:42:55;;;;;;;;;3.00;3.00;;;;;8.12;49.22;101042.63;5070905;28;45410;-74
2022/04/11 02:45:20;;;;;;;;;3.75;3.75;;;;;8.08;49.70;101045.16;5063747;28;45545;-75
2022/04/11 02:47:46;;;;;;;;;3.00;3.00;;;;;8.06;50.09;101044.19;5070404;28;46144;-75
2022/04/11 02:50:12;;;;;;;;;7.25;4.50;;;;;8.07;49.76;101040.75;5073124;28;45673;-75
2022/04/11 02:52:37;;;;;;;;;6.50;4.00;;;;;7.91;48.76;101004.13;5075424;28;45335;-75
2022/04/11 02:55:03;;;;;;;;;5.75;4.00;;;;;8.06;49.20;101035.41;5068427;27;45379;-74
2022/04/11 02:57:29;;;;;;;;;4.50;4.50;;;;;7.92;48.86;101007.66;5081048;27;45575;-75
2022/04/11 02:59:55;;;;;;;;;55.25;39.75;;;;;7.94;49.65;101014.78;5066923;27;45224;-75
2022/04/11 03:02:20;;;;;;;;;21.25;17.00;;;;;7.74;50.03;100971.00;5072016;28;45283;-75
2022/04/11 03:04:46;;;;;;;;;73.00;56.50;;;;;7.44;49.65;100924.25;5066981;27;45438;-75
2022/04/11 03:07:11;;;;;;;;;81.75;61.75;;;;;7.39;50.02;100920.56;5074321;27;45242;-75
2022/04/11 03:09:37;;;;;;;;;13.00;12.50;;;;;7.88;50.13;101009.28;5079704;27;45303;-75
2022/04/11 03:12:03;;;;;;;;;44.75;37.25;;;;;7.73;49.91;100979.72;5070285;27;45315;-75
2022/04/11 03:14:29;;;;;;;;;18.50;13.75;;;;;7.83;50.18;101006.47;5066717;28;45292;-75
2022/04/11 03:16:54;;;;;;;;;20.75;15.25;;;;;7.53;49.64;100956.16;5069339;28;45330;-75
2022/04/11 03:19:20;;;;;;;;;9.00;8.00;;;;;7.78;49.75;101004.50;5066887;27;45257;-75
2022/04/11 03:21:45;;;;;;;;;5.25;5.25;;;;;7.56;49.92;100965.91;5067500;28;45754;-75
2022/04/11 03:24:10;;;;;;;;;33.00;30.50;;;;;7.67;51.26;100988.28;5067007;28;45329;-75
2022/04/11 03:26:36;;;;;;;;;19.00;14.25;;;;;7.59;50.90;100976.59;5064592;28;45320;-75
2022/04/11 03:29:01;;;;;;;;;69.75;49.25;;;;;7.71;49.07;101003.38;5070256;28;45272;-75
2022/04/11 03:31:27;;;;;;;;;16.50;14.50;;;;;7.43;51.03;100972.44;5071362;28;45293;-74
2022/04/11 03:33:52;;;;;;;;;38.50;33.75;;;;;7.47;50.59;100976.09;5071790;28;45950;-74
2022/04/11 03:36:18;;;;;;;;;36.00;34.50;;;;;7.43;51.49;100968.94;5069629;28;46016;-75
2022/04/11 03:38:43;;;;;;;;;73.00;54.33;;;;;7.32;50.62;100960.59;5063448;27;45307;-75
2022/04/11 03:41:09;;;;;;;;;159.00;129.33;;;;;7.31;51.30;100978.13;5068708;28;45465;-75
2022/04/11 03:43:34;;;;;;;;;24.75;20.75;;;;;7.52;51.01;101007.00;5064455;27;45241;-75
2022/04/11 03:45:59;;;;;;;;;54.75;42.25;;;;;7.36;50.99;100978.28;5066811;28;45295;-75
2022/04/11 03:48:25;;;;;;;;;20.50;19.50;;;;;7.33;51.25;100962.38;5066279;27;45332;-75
2022/04/11 03:50:50;;;;;;;;;62.00;49.25;;;;;7.45;50.68;100981.31;5076571;28;45410;-75
2022/04/11 03:53:18;;;;;;;;;129.00;108.00;;;;;7.42;51.70;100978.53;5063432;28;45548;-75
2022/04/11 03:55:44;;;;;;;;;19.50;16.50;;;;;7.21;51.81;100952.28;5066141;28;47214;-75
2022/04/11 03:58:09;;;;;;;;;22.25;18.00;;;;;7.35;52.82;100982.66;5080064;27;45302;-75
2022/04/11 04:00:35;;;;;;;;;25.50;22.50;;;;;7.31;52.81;100992.97;5063922;28;45352;-75
2022/04/11 04:03:10;;;;;;;;;30.75;27.25;;;;;7.22;51.01;100953.16;5078402;27;45650;-75
2022/04/11 04:05:41;;;;;;;;;17.00;13.50;;;;;7.24;52.36;100968.19;5066198;28;45599;-75
2022/04/11 04:08:07;;;;;;;;;13.75;12.25;;;;;7.21;53.25;100961.91;5072490;28;45249;-75
2022/04/11 04:10:32;;;;;;;;;11.75;8.75;;;;;6.99;53.66;100936.47;5074715;27;45251;-75
2022/04/11 04:12:59;;;;;;;;;8.50;8.50;;;;;7.14;53.05;100966.00;5073085;27;45312;-75
2022/04/11 04:15:24;;;;;;;;;13.00;11.00;;;;;7.07;51.78;100956.97;5062997;28;45553;-75
2022/04/11 04:17:54;;;;;;;;;9.25;8.00;;;;;7.01;52.36;100964.63;5070328;28;45586;-74
2022/04/11 04:20:19;;;;;;;;;6.00;6.00;;;;;6.96;53.19;100963.53;5062981;28;45234;-75
2022/04/11 04:22:44;;;;;;;;;9.75;8.25;;;;;6.44;53.82;100880.84;5067754;28;45533;-75
2022/04/11 04:25:10;;;;;;;;;12.50;12.25;;;;;6.73;54.13;100945.06;5062588;28;45620;-74
2022/04/11 04:27:35;;;;;;;;;7.00;6.75;;;;;6.54;52.77;100903.09;5065555;28;45205;-74
2022/04/11 04:30:00;;;;;;;;;7.75;7.75;;;;;6.81;53.58;100949.75;5062522;28;45225;-74
2022/04/11 04:32:27;;;;;;;;;12.00;11.00;;;;;6.54;51.69;100900.47;5069467;27;45164;-75
2022/04/11 04:34:52;;;;;;;;;10.25;9.00;;;;;6.45;54.76;100900.09;5061212;28;45203;-74
2022/04/11 04:37:18;;;;;;;;;9.00;6.75;;;;;6.37;52.61;100889.25;5069841;27;45228;-75
2022/04/11 04:39:43;;;;;;;;;11.00;11.00;;;;;6.48;53.40;100908.09;5060569;28;45226;-74
2022/04/11 04:42:09;;;;;;;;;11.00;10.50;;;;;6.00;54.63;100834.31;5070962;28;45315;-75
2022/04/11 04:44:40;;;;;;;;;11.00;11.00;;;;;6.54;53.62;100925.84;5059680;28;45950;-75
2022/04/11 04:47:07;;;;;;;;;8.50;7.75;;;;;6.55;54.29;100932.88;5070958;28;45243;-75
2022/04/11 04:49:32;;;;;;;;;8.75;7.50;;;;;6.63;54.76;100949.88;5069629;28;45296;-75
2022/04/11 04:51:58;;;;;;;;;13.00;9.75;;;;;6.44;54.00;100920.22;5072640;28;45616;-75
2022/04/11 04:54:23;;;;;;;;;16.50;14.75;;;;;6.62;54.43;100959.47;5071741;27;46246;-74
2022/04/11 04:56:49;;;;;;;;;14.00;12.25;;;;;6.54;54.86;100955.63;5074116;28;45327;-75
2022/04/11 04:59:15;;;;;;;;;16.75;9.50;;;;;6.56;54.79;100974.09;5071047;27;45546;-75
2022/04/11 05:01:40;;;;;;;;;12.50;9.75;;;;;6.43;55.16;100952.53;5069108;28;45425;-74
2022/04/11 05:04:05;;;;;;;;;11.00;8.75;;;;;6.54;54.82;100976.63;5070419;27;45315;-74
2022/04/11 05:06:31;;;;;;;;;11.50;9.00;;;;;6.44;54.39;100969.19;5064920;28;45351;-74
2022/04/11 05:08:56;;;;;;;;;12.50;8.00;;;;;6.25;54.71;100936.91;5069934;28;45401;-73
2022/04/11 05:11:21;;;;;;;;;8.00;6.75;;;;;6.41;54.92;100966.41;5064929;28;46139;-74
2022/04/11 05:13:47;;;;;;;;;13.75;8.75;;;;;6.30;54.36;100949.31;5074713;28;45960;-74
2022/04/11 05:16:12;;;;;;;;;12.25;8.00;;;;;6.36;55.48;100962.69;5064929;28;45438;-74
2022/04/11 05:18:37;;;;;;;;;8.75;7.00;;;;;6.19;54.36;100926.13;5067710;28;45474;-74
2022/04/11 05:21:03;;;;;;;;;7.25;6.00;;;;;5.98;54.84;100891.94;5063645;28;45460;-74
2022/04/11 05:23:28;;;;;;;;;7.25;7.00;;;;;6.09;54.78;100913.41;5066172;28;46262;-73
2022/04/11 05:25:55;;;;;;;;;18.00;12.00;;;;;6.18;54.28;100928.66;5062286;28;45517;-75
2022/04/11 05:28:20;;;;;;;;;19.50;16.50;;;;;6.34;54.71;100954.78;5064529;28;45290;-73
2022/04/11 05:30:45;;;;;;;;;20.50;16.75;;;;;6.12;54.60;100910.03;5062897;28;45568;-75
2022/04/11 05:33:11;;;;;;;;;12.50;8.00;;;;;6.09;56.25;100905.53;5066405;27;46293;-77
2022/04/11 05:35:36;;;;;;;;;12.25;12.25;;;;;5.88;55.64;100873.06;5061520;28;45428;-75
2022/04/11 05:38:01;;;;;;;;;21.00;13.75;;;;;6.23;54.88;100924.53;5068235;27;45257;-75
2022/04/11 05:40:27;;;;;;;;;39.00;29.00;;;;;6.05;54.42;100891.41;5063130;28;45273;-77
2022/04/11 05:42:52;;;;;;;;;20.75;17.50;;;;;6.11;54.38;100896.03;5068472;27;45509;-75
2022/04/11 05:45:17;;;;;;;;;12.00;12.00;;;;;6.27;55.12;100924.75;5061137;28;45418;-76
2022/04/11 05:47:43;;;;;;;;;14.75;12.25;;;;;6.41;53.57;100941.09;5067938;28;45330;-75
2022/04/11 05:50:08;;;;;;;;;15.75;12.25;;;;;6.43;53.95;100943.75;5070295;28;45536;-76
2022/04/11 05:52:34;;;;;;;;;14.00;11.00;;;;;6.19;54.81;100905.13;5072615;27;46260;-76
2022/04/11 05:54:59;;;;;;;;;12.75;12.00;;;;;6.49;54.95;100958.03;5064908;27;45481;-75
2022/04/11 05:57:24;;;;;;;;;8.50;7.25;;;;;6.55;54.21;100948.63;5076926;28;45429;-76
2022/04/11 05:59:50;;;;;;;;;17.25;12.25;;;;;6.49;55.05;100937.03;5064735;27;45430;-76
2022/04/11 06:02:15;;;;;;;;;13.25;11.00;;;;;6.65;55.16;100954.34;5071918;27;45505;-73
2022/04/11 06:04:40;;;;;;;;;9.00;7.75;;;;;6.50;54.60;100909.97;5063947;27;45410;-73
2022/04/11 06:07:06;;;;;;;;;8.75;7.75;;;;;6.57;53.89;100913.72;5063179;27;45367;-79
2022/04/11 06:09:31;;;;;;;;;10.25;10.25;;;;;6.56;53.89;100906.69;5059780;27;45339;-76
2022/04/11 06:11:58;;;;;;;;;9.25;8.50;;;;;6.81;54.00;100940.16;5069139;28;45493;-75
2022/04/11 06:14:23;;;;;;;;;13.25;10.25;;;;;6.97;53.49;100951.28;5061955;28;45410;-76
2022/04/11 06:16:48;;;;;;;;;8.75;8.75;;;;;7.03;53.23;100955.06;5070161;27;45353;-76
2022/04/11 06:19:15;;;;;;;;;10.00;9.00;;;;;7.10;53.64;100951.84;5062610;27;45323;-76
2022/04/11 06:21:40;;;;;;;;;15.00;14.00;;;;;6.93;53.07;100906.47;5065157;28;46123;-76
2022/04/11 06:24:06;;;;;;;;;12.50;9.00;;;;;7.06;52.40;100910.50;5065417;28;45397;-76
2022/04/11 06:26:31;;;;;;;;;14.50;12.25;;;;;7.36;53.18;100952.00;5065103;28;45339;-76
2022/04/11 06:28:57;;;;;;;;;14.50;12.50;;;;;7.46;53.64;100946.25;5063718;28;45300;-76
2022/04/11 06:31:22;;;;;;;;;13.75;12.00;;;;;7.45;52.50;100933.97;5064761;28;45346;-76
2022/04/11 06:33:47;;;;;;;;;12.50;12.00;;;;;7.30;51.76;100897.44;5063904;28;45330;-77
2022/04/11 06:36:13;;;;;;;;;13.25;12.25;;;;;7.50;52.69;100898.19;5065030;28;45291;-76
2022/04/11 06:38:38;;;;;;;;;12.00;10.00;;;;;7.51;51.97;100878.97;5063944;28;45326;-76
2022/04/11 06:41:04;;;;;;;;;12.00;9.75;;;;;7.65;52.01;100886.50;5063900;28;45436;-76
2022/04/11 06:43:30;;;;;;;;;9.25;8.75;;;;;7.70;51.18;100877.00;5062683;28;45541;-76
2022/04/11 06:45:55;;;;;;;;;11.25;11.25;;;;;7.76;50.49;100867.63;5064335;28;45500;-76
2022/04/11 06:48:21;;;;;;;;;8.75;8.75;;;;;8.20;51.53;100918.31;5077100;28;45846;-77
2022/04/11 06:50:46;;;;;;;;;10.25;9.25;;;;;8.14;50.18;100888.25;5071992;27;46547;-80
2022/04/11 06:53:14;;;;;;;;;10.00;9.00;;;;;8.51;50.51;100904.53;5063950;28;45481;-79
2022/04/11 06:55:40;;;;;;;;;9.00;8.00;;;;;8.70;50.30;100906.03;5066630;28;45379;-76
2022/04/11 06:58:05;;;;;;;;;12.00;8.50;;;;;8.65;49.47;100864.56;5073998;28;45987;-78
2022/04/11 07:00:31;;;;;;;;;9.25;8.00;;;;;8.90;49.80;100872.44;5075171;27;45597;-75
2022/04/11 07:02:56;;;;;;;;;11.50;9.00;;;;;9.24;49.09;100907.78;5063240;28;45332;-76
2022/04/11 07:05:21;;;;;;;;;11.00;10.00;;;;;9.45;49.05;100896.13;5062889;28;45267;-78
2022/04/11 07:07:47;;;;;;;;;10.00;8.50;;;;;9.66;47.83;100901.13;5062531;28;45556;-77
2022/04/11 07:10:12;;;;;;;;;8.25;8.00;;;;;9.84;47.77;100897.28;5061546;28;47041;-75
2022/04/11 07:12:38;;;;;;;;;9.25;6.50;;;;;9.82;48.18;100875.22;5063238;27;45244;-75
2022/04/11 07:15:05;;;;;;;;;8.25;8.25;;;;;9.84;47.04;100862.06;5060471;28;45473;-75
2022/04/11 07:17:31;;;;;;;;;11.50;10.50;;;;;9.91;45.78;100834.09;5062007;28;45505;-75
2022/04/11 07:19:56;;;;;;;;;8.75;7.75;;;;;10.00;45.97;100827.31;5059520;28;45264;-75
2022/04/11 07:22:22;;;;;;;;;8.75;8.75;;;;;10.51;46.42;100865.66;5064437;27;45641;-75
2022/04/11 07:24:47;;;;;;;;;8.00;8.00;;;;;10.75;46.34;100861.00;5060315;28;45363;-76
2022/04/11 07:27:12;;;;;;;;;9.00;9.00;;;;;10.69;46.45;100825.56;5063996;27;45366;-75
2022/04/11 07:29:38;;;;;;;;;9.25;7.75;;;;;10.92;45.17;100866.69;5061354;28;47922;-73
2022/04/11 07:32:04;;;;;;;;;9.25;9.25;;;;;11.06;44.68;100864.38;5064991;27;45320;-76
2022/04/11 07:34:29;;;;;;;;;9.50;9.50;;;;;10.95;44.22;100831.47;5059409;28;45362;-76
2022/04/11 07:36:54;;;;;;;;;9.50;8.25;;;;;11.32;45.35;100864.06;5064161;28;45412;-75
2022/04/11 07:39:20;;;;;;;;;7.00;7.00;;;;;11.22;43.46;100835.63;5059463;27;46151;-75
2022/04/11 07:41:46;;;;;;;;;10.00;10.00;;;;;11.39;44.80;100843.06;5060914;28;45329;-75
2022/04/11 07:44:11;;;;;;;;;10.00;10.00;;;;;11.53;43.00;100856.59;5059902;28;45265;-75
2022/04/11 07:46:36;;;;;;;;;9.75;8.75;;;;;11.35;44.79;100797.97;5062884;28;45312;-75
2022/04/11 07:49:02;;;;;;;;;10.00;10.00;;;;;11.60;42.90;100810.84;5064820;27;45302;-74
2022/04/11 07:51:27;;;;;;;;;11.00;10.25;;;;;11.92;43.12;100858.31;5062372;28;45850;-75
2022/04/11 07:53:53;;;;;;;;;7.25;7.25;;;;;11.80;43.04;100811.25;5061491;28;45304;-75
2022/04/11 07:56:18;;;;;;;;;10.00;7.75;;;;;11.82;42.96;100816.59;5065584;28;45315;-75
2022/04/11 07:58:43;;;;;;;;;11.75;9.25;;;;;12.18;41.72;100845.53;5063757;28;46379;-75
2022/04/11 08:01:14;;;;;;;;;7.50;6.00;;;;;12.38;43.23;100832.66;5063339;28;46373;-76
2022/04/11 08:03:40;;;;;;;;;8.00;8.00;;;;;12.40;41.61;100825.63;5021008;28;1137460;-76
2022/04/11 08:06:05;;;;;;;;;9.00;7.00;;;;;12.64;42.44;100838.41;5062805;28;45480;-77
2022/04/11 08:08:30;;;;;;;;;8.25;7.00;;;;;12.53;43.37;100776.34;5062025;28;46304;-76
2022/04/11 08:10:56;;;;;;;;;8.50;8.50;;;;;12.80;42.96;100788.25;5067672;28;45387;-74
2022/04/11 08:13:21;;;;;;;;;6.50;6.50;;;;;13.09;42.55;100825.84;5071825;28;45240;-75
2022/04/11 08:15:47;;;;;;;;;8.00;8.00;;;;;13.20;41.10;100822.44;5072379;27;45542;-75
2022/04/11 08:18:12;;;;;;;;;8.75;8.75;;;;;13.25;41.90;100797.72;5061665;28;46017;-75
2022/04/11 08:20:37;;;;;;;;;6.75;6.00;;;;;13.46;40.62;100813.97;5062295;28;45233;-75
2022/04/11 08:23:03;;;;;;;;;9.00;7.00;;;;;13.38;40.75;100747.50;5061748;27;45441;-75
2022/04/11 08:25:28;;;;;;;;;7.25;7.25;;;;;13.85;38.11;100840.13;5070221;28;46243;-75
2022/04/11 08:27:53;;;;;;;;;9.00;9.00;;;;;14.16;39.16;100835.16;5062776;27;45893;-74
2022/04/11 08:30:19;;;;;;;;;9.50;8.50;;;;;14.42;40.43;100819.44;5071811;28;45335;-75
2022/04/11 08:32:47;;;;;;;;;12.50;9.00;;;;;14.43;39.87;100810.59;5064250;28;45416;-75
2022/04/11 08:35:13;;;;;;;;;9.00;6.25;;;;;14.60;40.39;100780.63;5062293;28;45506;-75
2022/04/11 08:37:42;;;;;;;;;9.00;8.25;;;;;14.80;38.59;100776.31;5061329;27;45360;-75
2022/04/11 08:40:11;;;;;;;;;11.50;11.50;;;;;15.23;36.91;100811.19;5059234;28;45446;-76
2022/04/11 08:42:39;;;;;;;;;9.67;9.33;;;;;15.30;40.22;100783.72;5061344;27;45394;-75
2022/04/11 08:45:04;;;;;;;;;10.00;8.67;;;;;15.60;37.73;100808.69;5060156;27;46082;-75
2022/04/11 08:47:30;;;;;;;;;10.33;7.33;;;;;15.77;35.46;100790.16;5070183;27;45215;-75
2022/04/11 08:49:55;;;;;;;;;13.25;11.00;;;;;15.96;36.22;100783.94;5076707;27;45245;-75
2022/04/11 08:52:21;;;;;;;;;8.67;7.33;;;;;15.98;35.96;100767.97;5077454;27;45309;-74
2022/04/11 08:54:46;;;;;;;;;9.00;7.33;;;;;15.80;35.41;100739.50;5066688;27;45257;-77
2022/04/11 08:57:12;;;;;;;;;8.00;8.00;;;;;16.07;36.81;100741.31;5074490;28;45952;-76
2022/04/11 08:59:37;;;;;;;;;7.00;6.00;;;;;16.40;36.29;100767.09;5066420;27;45389;-76
2022/04/11 09:02:09;;;;;;;;;7.67;6.67;;;;;16.54;35.56;100759.97;5070533;28;45227;-76
2022/04/11 09:04:56;;;;;;;;;10.00;10.00;;;;;16.75;35.74;100743.06;5065508;27;45360;-76
2022/04/11 09:07:23;;;;;;;;;10.33;8.67;;;;;17.14;36.78;100767.94;5068626;28;45361;-75
2022/04/11 09:09:49;;;;;;;;;6.33;5.00;;;;;17.05;33.46;100727.88;5062529;28;45287;-75
2022/04/11 09:12:16;;;;;;;;;7.33;7.00;;;;;17.28;35.56;100733.16;5068936;28;45427;-75
2022/04/11 09:14:43;;;;;;;;;6.67;6.00;;;;;17.76;34.40;100757.84;5062074;27;45573;-76
2022/04/11 09:17:11;;;;;;;;;8.00;6.00;;;;;17.71;33.65;100718.66;5066771;28;45405;-76
2022/04/11 09:19:38;;;;;;;;;6.67;6.00;;;;;18.15;33.33;100766.53;5061352;27;45333;-75
2022/04/11 09:22:05;;;;;;;;;5.33;4.00;;;;;18.21;31.90;100734.38;5064361;28;45710;-75
2022/04/11 09:24:31;;;;;;;;;4.00;4.00;;;;;18.51;30.76;100751.06;5061227;27;45275;-75
2022/04/11 09:26:58;;;;;;;;;4.00;4.00;;;;;18.76;33.81;100751.75;5062969;28;45379;-75
2022/04/11 09:29:25;;;;;;;;;5.33;5.00;;;;;18.95;32.09;100755.13;5061163;27;45383;-75
2022/04/11 09:31:51;;;;;;;;;6.67;4.00;;;;;18.95;32.77;100706.91;5070178;28;45355;-75
2022/04/11 09:34:25;;;;;;;;;6.00;4.67;;;;;19.18;30.88;100741.47;5060998;27;47364;-75
2022/04/11 09:36:54;;;;;;;;;6.00;4.67;;;;;19.57;31.11;100732.03;5068287;28;46734;-74
2022/04/11 09:39:24;;;;;;;;;5.00;5.00;;;;;19.73;31.77;100724.69;5057924;28;45223;-74
2022/04/11 09:41:51;;;;;;;;;3.00;3.00;;;;;20.02;32.36;100734.09;5069903;28;45514;-81
2022/04/11 09:44:29;;;;;;;;;3.00;3.00;;;;;20.13;30.28;100727.63;5061978;28;45291;-76
2022/04/11 09:46:59;;;;;;;;;6.33;4.00;;;;;20.21;30.37;100726.63;5069266;27;47125;-75
2022/04/11 09:49:25;;;;;;;;;4.67;3.33;;;;;20.40;30.12;100727.22;5065483;28;45311;-74
2022/04/11 09:52:02;;;;;;;;;4.00;4.00;;;;;20.46;30.11;100716.38;5084159;27;45378;-75
2022/04/11 09:54:29;;;;;;;;;4.00;4.00;;;;;20.40;28.82;100719.16;5067365;28;46148;-75
2022/04/11 09:56:58;;;;;;;;;3.67;3.67;;;;;20.15;29.50;100676.63;5068845;28;45450;-74
2022/04/11 09:59:23;;;;;;;;;2.00;2.00;;;;;20.42;30.37;100704.81;5078212;27;45314;-75
2022/04/11 10:01:51;;;;;;;;;5.00;4.00;;;;;20.54;29.63;100701.91;5067151;28;45712;-73
2022/04/11 10:04:20;;;;;;;;;6.00;1.67;;;;;20.79;30.43;100698.78;5067669;27;45557;-75
2022/04/11 10:06:46;;;;;;;;;2.00;2.00;;;;;20.66;29.37;100662.31;5059200;28;46328;-77
2022/04/11 10:09:14;;;;;;;;;4.00;3.00;;;;;20.84;28.97;100702.25;5073596;28;45731;-74
2022/04/11 10:11:43;;;;;;;;;7.00;3.67;;;;;20.94;28.29;100694.88;5064343;28;45462;-74
2022/04/11 10:14:13;;;;;;;;;4.00;4.00;;;;;20.91;27.49;100709.28;5066191;28;45344;-75
2022/04/11 10:16:43;;;;;;;;;3.67;3.67;;;;;21.16;29.17;100706.97;5062531;28;45433;-75
2022/04/11 10:19:10;;;;;;;;;2.33;2.33;;;;;21.20;29.10;100699.72;5065133;28;45407;-76
2022/04/11 10:21:40;;;;;;;;;2.67;2.67;;;;;21.33;28.87;100703.03;5062105;28;45454;-76
2022/04/11 10:24:13;;;;;;;;;5.67;4.67;;;;;21.12;28.22;100646.16;5063790;28;45542;-75
2022/04/11 10:26:47;;;;;;;;;3.00;3.00;;;;;21.13;28.23;100671.22;5060573;28;45435;-75
2022/04/11 10:29:32;;;;;;;;;4.67;3.67;;;;;21.22;26.13;100696.09;5058117;28;45650;-75
2022/04/11 10:32:09;;;;;;;;;3.33;3.33;;;;;21.42;27.06;100687.63;5062377;28;45379;-75
2022/04/11 10:34:48;;;;;;;;;4.67;3.67;;;;;21.57;27.94;100666.69;5058510;27;45485;-80
2022/04/11 10:37:15;;;;;;;;;3.00;3.00;;;;;21.76;27.14;100654.59;5069017;28;45301;-78
2022/04/11 10:39:43;;;;;;;;;5.00;4.00;;;;;21.82;28.46;100643.66;5057864;28;45402;-78
2022/04/11 10:42:11;;;;;;;;;4.67;3.33;;;;;22.06;26.55;100655.59;5070701;28;45288;-76
2022/04/11 10:44:37;;;;;;;;;5.00;3.67;;;;;22.29;26.09;100659.53;5073289;28;46555;-79
2022/04/11 10:47:17;;;;;;;;;3.33;3.00;;;;;22.40;27.74;100668.22;5069971;28;45317;-77
2022/04/11 10:49:45;;;;;;;;;3.33;3.00;;;;;22.45;25.98;100657.34;5068558;28;45316;-74
2022/04/11 10:52:32;;;;;;;;;16.00;11.00;;;;;22.64;27.44;100650.53;5069288;28;45500;-77
2022/04/11 10:55:08;;;;;;;;;3.33;3.00;;;;;22.48;27.18;100589.91;5063906;28;48029;-71
2022/04/11 10:57:44;;;;;;;;;5.33;5.33;;;;;22.77;26.86;100619.63;5078254;27;48346;-73
2022/04/11 11:00:10;;;;;;;;;4.33;3.00;;;;;22.63;24.50;100647.84;5064876;27;45669;-74
2022/04/11 11:03:00;;;;;;;;;4.33;3.00;;;;;22.53;26.13;100625.69;5075814;27;45424;-74
2022/04/11 11:05:48;;;;;;;;;5.67;4.33;;;;;22.77;27.35;100614.22;5073078;27;47061;-73
2022/04/11 11:08:14;;;;;;;;;6.67;3.00;;;;;22.99;25.77;100621.69;5069692;28;45285;-74
2022/04/11 11:10:42;;;;;;;;;6.33;5.00;;;;;23.11;26.47;100615.94;5063142;28;45458;-74
2022/04/11 11:13:27;;;;;;;;;34.33;32.00;;;;;23.22;24.77;100632.69;5061068;28;45494;-74
2022/04/11 11:15:57;;;;;;;;;9.67;7.00;;;;;23.25;25.71;100615.53;5073696;28;45671;-74
2022/04/11 11:18:23;;;;;;;;;3.67;3.67;;;;;23.18;24.65;100585.16;5070491;28;47130;-74
2022/04/11 11:20:54;;;;;;;;;9.33;8.67;;;;;23.50;25.23;100631.81;5071726;27;45511;-76
2022/04/11 11:23:31;;;;;;;;;36.33;31.00;;;;;23.59;23.90;100642.31;5081579;27;45292;-74